createdAt,value
2022-08-25T00:01:46.326Z,101517.38
2022-08-25T00:04:16.504Z,101513.84
2022-08-25T00:07:02.800Z,101519.22
2022-08-25T00:09:32.704Z,101514.28
2022-08-25T00:12:01.414Z,101521.81
2022-08-25T00:14:36.033Z,101522.78
2022-08-25T00:17:06.030Z,101524.78
2022-08-25T00:19:35.995Z,101521.09
2022-08-25T00:22:04.353Z,101529.03
2022-08-25T00:24:32.196Z,101525.63
2022-08-25T00:27:01.738Z,101522.09
2022-08-25T00:29:30.530Z,101527.19
2022-08-25T00:31:58.296Z,101530.84
2022-08-25T00:34:29.805Z,101529.44
2022-08-25T00:36:57.623Z,101528.88
2022-08-25T00:39:25.539Z,101534.53
2022-08-25T00:41:57.089Z,101530.28
2022-08-25T00:44:27.476Z,101529.31
2022-08-25T00:46:58.264Z,101525.47
2022-08-25T00:49:58.981Z,101533.69
2022-08-25T00:52:31.773Z,101537.38
2022-08-25T00:55:21.836Z,101534.97
2022-08-25T00:57:56.162Z,101535.09
2022-08-25T01:00:36.054Z,101543.91
2022-08-25T01:03:05.098Z,101540.19
2022-08-25T01:05:34.094Z,101541.94
2022-08-25T01:08:03.407Z,101540.06
2022-08-25T01:10:37.867Z,101545.47
2022-08-25T01:13:20.843Z,101542.91
2022-08-25T01:15:50.295Z,101546.72
2022-08-25T01:18:17.951Z,101545.88
2022-08-25T01:20:53.781Z,101545.28
2022-08-25T01:23:22.913Z,101546.31
2022-08-25T01:26:03.685Z,101542.88
2022-08-25T01:28:31.636Z,101546.56
2022-08-25T01:30:59.322Z,101552.97
2022-08-25T01:33:27.165Z,101546.13
2022-08-25T01:35:54.742Z,101552.66
2022-08-25T01:38:23.358Z,101552.06
2022-08-25T01:40:50.998Z,101551.09
2022-08-25T01:43:37.135Z,101549.69
2022-08-25T01:46:04.997Z,101549.69
2022-08-25T01:48:33.224Z,101559.72
2022-08-25T01:51:00.776Z,101561.13
2022-08-25T01:53:33.456Z,101562.50
2022-08-25T01:56:11.574Z,101569.31
2022-08-25T01:58:42.667Z,101563.38
2022-08-25T02:01:15.971Z,101559.94
2022-08-25T02:03:46.780Z,101562.06
2022-08-25T02:06:20.273Z,101563.19
2022-08-25T02:08:58.562Z,101560.50
2022-08-25T02:11:26.372Z,101567.97
2022-08-25T02:13:54.414Z,101571.94
2022-08-25T02:16:28.891Z,101566.84
2022-08-25T02:18:57.627Z,101562.72
2022-08-25T02:21:25.831Z,101573.88
2022-08-25T02:23:53.659Z,101577.66
2022-08-25T02:26:21.236Z,101566.34
2022-08-25T02:28:51.008Z,101563.91
2022-08-25T02:31:21.132Z,101569.72
2022-08-25T02:33:49.314Z,101563.84
2022-08-25T02:36:17.039Z,101571.31
2022-08-25T02:38:45.186Z,101571.59
2022-08-25T02:41:19.544Z,101576.25
2022-08-25T02:43:48.759Z,101574.81
2022-08-25T02:46:20.110Z,101580.19
2022-08-25T02:48:53.021Z,101586.44
2022-08-25T02:51:22.602Z,101581.50
2022-08-25T02:53:50.541Z,101582.06
2022-08-25T02:56:19.542Z,101585.59
2022-08-25T02:58:47.692Z,101586.75
2022-08-25T03:01:16.140Z,101586.75
2022-08-25T03:03:46.233Z,101584.06
2022-08-25T03:06:17.031Z,101586.84
2022-08-25T03:08:45.178Z,101587.97
2022-08-25T03:11:12.901Z,101590.22
2022-08-25T03:13:40.945Z,101588.75
2022-08-25T03:16:11.405Z,101575.00
2022-08-25T03:18:42.134Z,101569.31
2022-08-25T03:21:12.399Z,101575.34
2022-08-25T03:23:41.693Z,101586.50
2022-08-25T03:26:28.227Z,101573.72
2022-08-25T03:28:55.906Z,101575.22
2022-08-25T03:31:27.882Z,101580.75
2022-08-25T03:33:55.828Z,101583.69
2022-08-25T03:36:23.981Z,101575.16
2022-08-25T03:38:52.513Z,101579.19
2022-08-25T03:41:24.375Z,101580.44
2022-08-25T03:43:56.429Z,101588.88
2022-08-25T03:46:30.097Z,101578.41
2022-08-25T03:49:00.305Z,101576.69
2022-08-25T03:51:35.230Z,101577.56
2022-08-25T03:54:04.785Z,101582.78
2022-08-25T03:56:32.523Z,101583.63
2022-08-25T03:59:00.694Z,101580.84
2022-08-25T04:01:28.540Z,101583.38
2022-08-25T04:03:56.329Z,101578.59
2022-08-25T04:06:23.911Z,101579.44
2022-08-25T04:08:52.846Z,101579.44
2022-08-25T04:11:23.255Z,101571.28
2022-08-25T04:13:52.909Z,101576.66
2022-08-25T04:16:23.721Z,101573.25
2022-08-25T04:18:54.015Z,101566.28
2022-08-25T04:21:22.940Z,101569.13
2022-08-25T04:23:52.377Z,101577.41
2022-08-25T04:26:25.701Z,101573.06
2022-08-25T04:28:53.717Z,101577.56
2022-08-25T04:31:22.248Z,101580.09
2022-08-25T04:33:50.620Z,101578.16
2022-08-25T04:36:19.741Z,101578.41
2022-08-25T04:38:49.795Z,101581.09
2022-08-25T04:41:20.904Z,101581.78
2022-08-25T04:43:49.385Z,101583.53
2022-08-25T04:46:20.165Z,101583.63
2022-08-25T04:48:50.067Z,101589.84
2022-08-25T04:51:20.586Z,101589.84
2022-08-25T04:53:48.149Z,101589.00
2022-08-25T04:56:18.198Z,101581.78
2022-08-25T04:58:49.013Z,101585.94
2022-08-25T05:01:20.108Z,101581.19
2022-08-25T05:03:52.640Z,101590.91
2022-08-25T05:06:20.459Z,101591.91
2022-08-25T05:08:48.034Z,101600.66
2022-08-25T05:11:18.147Z,101595.44
2022-08-25T05:13:51.575Z,101587.25
2022-08-25T05:16:21.803Z,101589.66
2022-08-25T05:18:51.637Z,101587.56
2022-08-25T05:21:23.005Z,101588.31
2022-08-25T05:23:54.853Z,101595.25
2022-08-25T05:26:23.545Z,101583.53
2022-08-25T05:28:54.942Z,101587.78
2022-08-25T05:31:24.618Z,101585.84
2022-08-25T05:33:53.593Z,101585.56
2022-08-25T05:36:22.533Z,101589.72
2022-08-25T05:38:50.345Z,101593.09
2022-08-25T05:41:21.897Z,101587.47
2022-08-25T05:43:50.113Z,101588.19
2022-08-25T05:46:19.645Z,101581.72
2022-08-25T05:48:47.894Z,101585.38
2022-08-25T05:51:16.545Z,101589.19
2022-08-25T05:53:46.500Z,101593.25
2022-08-25T05:56:14.706Z,101595.91
2022-08-25T05:58:43.798Z,101589.56
2022-08-25T06:01:39.225Z,101599.94
2022-08-25T06:04:07.120Z,101600.50
2022-08-25T06:06:34.850Z,101598.28
2022-08-25T06:09:04.984Z,101604.50
2022-08-25T06:11:32.548Z,101603.53
2022-08-25T06:14:00.109Z,101606.22
2022-08-25T06:16:27.785Z,101607.91
2022-08-25T06:18:55.500Z,101611.06
2022-08-25T06:21:23.166Z,101611.91
2022-08-25T06:23:50.824Z,101619.28
2022-08-25T06:26:21.435Z,101622.44
2022-08-25T06:28:51.045Z,101614.13
2022-08-25T06:31:19.626Z,101612.41
2022-08-25T06:33:47.325Z,101606.50
2022-08-25T06:36:15.668Z,101606.22
2022-08-25T06:38:43.787Z,101609.28
2022-08-25T06:41:12.437Z,101622.00
2022-08-25T06:43:47.411Z,101613.47
2022-08-25T06:46:20.290Z,101626.13
2022-08-25T06:48:49.226Z,101624.41
2022-08-25T06:51:19.955Z,101627.78
2022-08-25T06:53:49.792Z,101626.00
2022-08-25T06:56:20.010Z,101630.25
2022-08-25T06:58:49.025Z,101635.81
2022-08-25T07:01:23.452Z,101636.25
2022-08-25T07:03:59.951Z,101642.63
2022-08-25T07:06:29.387Z,101634.94
2022-08-25T07:08:57.181Z,101635.13
2022-08-25T07:11:24.896Z,101634.91
2022-08-25T07:13:52.813Z,101635.44
2022-08-25T07:16:21.258Z,101633.06
2022-08-25T07:18:49.119Z,101638.63
2022-08-25T07:21:17.501Z,101644.34
2022-08-25T07:23:47.612Z,101647.03
2022-08-25T07:26:36.627Z,101653.19
2022-08-25T07:29:09.652Z,101652.34
2022-08-25T07:31:37.696Z,101650.50
2022-08-25T07:34:25.586Z,101652.41
2022-08-25T07:36:55.569Z,101643.41
2022-08-25T07:39:24.571Z,101644.88
2022-08-25T07:41:52.690Z,101639.13
2022-08-25T07:44:24.610Z,101649.72
2022-08-25T07:46:56.424Z,101645.03
2022-08-25T07:49:26.454Z,101639.72
2022-08-25T07:52:06.495Z,101649.31
2022-08-25T07:54:38.038Z,101649.22
2022-08-25T07:57:08.150Z,101656.53
2022-08-25T07:59:40.693Z,101653.16
2022-08-25T08:02:18.599Z,101654.47
2022-08-25T08:04:49.779Z,101647.00
2022-08-25T08:07:23.587Z,101652.03
2022-08-25T08:10:18.948Z,101651.00
2022-08-25T08:12:43.617Z,101645.75
2022-08-25T08:15:11.619Z,101658.72
2022-08-25T08:17:39.982Z,101664.22
2022-08-25T08:20:10.949Z,101670.25
2022-08-25T08:22:41.259Z,101672.94
2022-08-25T08:25:11.819Z,101666.44
2022-08-25T08:27:47.020Z,101662.06
2022-08-25T08:30:15.055Z,101664.31
2022-08-25T08:33:08.600Z,101658.94
2022-08-25T08:35:30.920Z,101671.84
2022-08-25T08:37:58.488Z,101668.56
2022-08-25T08:40:26.846Z,101670.81
2022-08-25T08:43:18.016Z,101660.09
2022-08-25T08:45:53.181Z,101664.47
2022-08-25T08:48:40.101Z,101664.53
2022-08-25T08:51:14.429Z,101669.94
2022-08-25T08:53:48.946Z,101674.63
2022-08-25T08:56:25.909Z,101672.34
2022-08-25T08:59:06.409Z,101676.63
2022-08-25T09:02:00.245Z,101678.63
2022-08-25T09:04:49.743Z,101678.47
2022-08-25T09:07:22.315Z,101676.41
2022-08-25T09:09:52.167Z,101674.97
2022-08-25T09:12:40.966Z,101671.22
2022-08-25T09:16:02.617Z,101666.63
2022-08-25T09:18:51.056Z,101668.28
2022-08-25T09:21:32.500Z,101673.94
2022-08-25T09:24:09.639Z,101674.13
2022-08-25T09:26:50.247Z,101672.25
2022-08-25T09:29:25.318Z,101674.78
2022-08-25T09:31:58.108Z,101675.91
2022-08-25T09:34:32.701Z,101675.84
2022-08-25T09:37:01.084Z,101682.81
2022-08-25T09:39:28.749Z,101680.69
2022-08-25T09:42:00.529Z,101683.56
2022-08-25T09:44:31.241Z,101685.25
2022-08-25T09:47:18.547Z,101681.81
2022-08-25T09:49:49.253Z,101682.28
2022-08-25T09:52:41.128Z,101671.59
2022-08-25T09:55:09.320Z,101666.66
2022-08-25T09:57:43.759Z,101659.84
2022-08-25T10:00:15.054Z,101655.41
2022-08-25T10:02:45.183Z,101654.50
2022-08-25T10:05:26.428Z,101653.50
2022-08-25T10:08:00.420Z,101661.50
2022-08-25T10:10:33.085Z,101664.72
2022-08-25T10:13:06.171Z,101658.16
2022-08-25T10:15:37.240Z,101656.19
2022-08-25T10:18:22.344Z,101650.13
2022-08-25T10:21:10.599Z,101662.16
2022-08-25T10:23:56.052Z,101666.38
2022-08-25T10:26:38.500Z,101666.38
2022-08-25T10:29:10.293Z,101659.75
2022-08-25T10:31:49.210Z,101663.72
2022-08-25T10:34:29.840Z,101650.56
2022-08-25T10:37:33.542Z,101637.84
2022-08-25T10:40:04.175Z,101643.66
2022-08-25T10:42:38.802Z,101645.66
2022-08-25T10:45:44.719Z,101641.81
2022-08-25T10:48:34.699Z,101638.47
2022-08-25T10:51:08.960Z,101638.88
2022-08-25T10:54:03.712Z,101647.41
2022-08-25T10:56:41.886Z,101645.88
2022-08-25T10:59:55.542Z,101645.78
2022-08-25T11:02:41.622Z,101641.22
2022-08-25T11:05:36.847Z,101647.31
2022-08-25T11:08:43.207Z,101639.34
2022-08-25T11:11:21.718Z,101647.22
2022-08-25T11:13:58.987Z,101638.88
2022-08-25T11:16:38.389Z,101639.91
2022-08-25T11:19:15.001Z,101640.03
2022-08-25T11:21:47.017Z,101643.41
2022-08-25T11:24:28.329Z,101645.25
2022-08-25T11:26:57.714Z,101650.03
2022-08-25T11:29:33.806Z,101645.66
2022-08-25T11:32:02.095Z,101643.13
2022-08-25T11:34:37.044Z,101642.63
2022-08-25T11:37:25.942Z,101647.38
2022-08-25T11:40:13.799Z,101635.34
2022-08-25T11:42:50.785Z,101642.28
2022-08-25T11:45:43.717Z,101641.78
2022-08-25T11:48:15.988Z,101647.69
2022-08-25T11:51:09.379Z,101653.97
2022-08-25T11:53:42.670Z,101651.41
2022-08-25T11:56:30.202Z,101651.25
2022-08-25T11:58:57.877Z,101647.19
2022-08-25T12:01:40.895Z,101641.59
2022-08-25T12:04:44.690Z,101642.97
2022-08-25T12:07:20.188Z,101630.66
2022-08-25T12:09:53.851Z,101637.66
2022-08-25T12:12:30.669Z,101634.59
2022-08-25T12:15:22.796Z,101631.03
2022-08-25T12:18:09.483Z,101635.44
2022-08-25T12:20:57.141Z,101626.84
2022-08-25T12:24:04.005Z,101627.28
2022-08-25T12:26:46.204Z,101635.94
2022-08-25T12:29:29.547Z,101628.56
2022-08-25T12:31:59.167Z,101633.22
2022-08-25T12:34:59.959Z,101631.75
2022-08-25T12:37:27.795Z,101637.88
2022-08-25T12:40:02.566Z,101627.06
2022-08-25T12:42:30.951Z,101635.94
2022-08-25T12:45:25.633Z,101618.13
2022-08-25T12:47:54.766Z,101618.88
2022-08-25T12:50:47.800Z,101612.97
2022-08-25T12:53:44.846Z,101619.63
2022-08-25T12:56:47.618Z,101610.88
2022-08-25T12:59:21.998Z,101614.22
2022-08-25T13:02:26.769Z,101614.66
2022-08-25T13:05:12.675Z,101607.00
2022-08-25T13:08:04.727Z,101615.16
2022-08-25T13:10:42.227Z,101619.97
2022-08-25T13:13:34.707Z,101619.00
2022-08-25T13:16:07.229Z,101618.47
2022-08-25T13:18:37.696Z,101616.56
2022-08-25T13:21:07.416Z,101624.38
2022-08-25T13:23:38.031Z,101620.56
2022-08-25T13:26:06.092Z,101616.78
2022-08-25T13:28:37.002Z,101614.69
2022-08-25T13:31:16.420Z,101603.53
2022-08-25T13:34:19.394Z,101607.13
2022-08-25T13:37:07.857Z,101607.53
2022-08-25T13:39:55.363Z,101614.88
2022-08-25T13:42:28.808Z,101602.16
2022-08-25T13:44:57.025Z,101610.88
2022-08-25T13:47:43.772Z,101607.53
2022-08-25T13:50:18.550Z,101617.72
2022-08-25T13:53:12.464Z,101605.41
2022-08-25T13:55:51.551Z,101607.25
2022-08-25T13:58:38.651Z,101617.47
2022-08-25T14:01:49.185Z,101615.34
2022-08-25T14:04:50.496Z,101612.00
2022-08-25T14:07:22.717Z,101611.66
2022-08-25T14:09:57.495Z,101612.41
2022-08-25T14:12:37.998Z,101612.25
2022-08-25T14:15:11.342Z,101619.09
2022-08-25T14:17:41.293Z,101606.38
2022-08-25T14:20:25.803Z,101603.22
2022-08-25T14:22:58.128Z,101599.13
2022-08-25T14:25:28.126Z,101597.31
2022-08-25T14:28:16.392Z,101604.03
2022-08-25T14:30:49.491Z,101604.34
2022-08-25T14:33:22.392Z,101593.91
2022-08-25T14:35:53.894Z,101598.34
2022-08-25T14:38:23.508Z,101609.78
2022-08-25T14:40:51.484Z,101600.53
2022-08-25T14:43:23.638Z,101611.16
2022-08-25T14:46:02.610Z,101613.81
2022-08-25T14:48:39.408Z,101615.88
2022-08-25T14:51:07.206Z,101602.78
2022-08-25T14:53:35.258Z,101604.28
2022-08-25T14:56:09.308Z,101600.66
2022-08-25T14:58:51.140Z,101589.09
2022-08-25T15:01:28.689Z,101588.22
2022-08-25T15:04:22.463Z,101592.56
2022-08-25T15:06:57.512Z,101589.66
2022-08-25T15:09:26.155Z,101590.88
2022-08-25T15:12:01.392Z,101588.16
2022-08-25T15:14:33.282Z,101588.84
2022-08-25T15:17:03.488Z,101588.59
2022-08-25T15:19:31.311Z,101588.53
2022-08-25T15:21:59.340Z,101584.00
2022-08-25T15:24:28.883Z,101585.03
2022-08-25T15:26:59.449Z,101586.63
2022-08-25T15:29:30.231Z,101585.09
2022-08-25T15:32:00.322Z,101584.25
2022-08-25T15:34:29.322Z,101584.75
2022-08-25T15:36:58.909Z,101591.03
2022-08-25T15:39:27.958Z,101590.38
2022-08-25T15:41:57.218Z,101591.63
2022-08-25T15:44:29.187Z,101592.88
2022-08-25T15:46:59.140Z,101589.22
2022-08-25T15:49:29.612Z,101595.97
2022-08-25T15:52:00.076Z,101590.66
2022-08-25T15:54:28.564Z,101582.44
2022-08-25T15:56:58.865Z,101589.44
2022-08-25T15:59:28.493Z,101582.09
2022-08-25T16:01:56.717Z,101588.53
2022-08-25T16:04:27.635Z,101586.94
2022-08-25T16:06:55.742Z,101578.03
2022-08-25T16:09:24.067Z,101585.34
2022-08-25T16:11:55.922Z,101583.34
2022-08-25T16:14:26.111Z,101583.22
2022-08-25T16:16:58.360Z,101581.50
2022-08-25T16:19:28.625Z,101585.56
2022-08-25T16:21:57.624Z,101585.44
2022-08-25T16:24:25.425Z,101588.38
2022-08-25T16:26:56.019Z,101587.78
2022-08-25T16:29:24.399Z,101579.28
2022-08-25T16:31:53.249Z,101589.66
2022-08-25T16:34:24.496Z,101582.63
2022-08-25T16:36:53.975Z,101585.88
2022-08-25T16:39:23.981Z,101593.72
2022-08-25T16:41:52.621Z,101594.97
2022-08-25T16:44:22.807Z,101589.09
2022-08-25T16:46:54.625Z,101603.22
2022-08-25T16:49:24.533Z,101594.09
2022-08-25T16:51:56.958Z,101592.38
2022-08-25T16:54:45.353Z,101599.81
2022-08-25T16:57:13.259Z,101602.72
2022-08-25T16:59:42.582Z,101597.66
2022-08-25T17:02:12.151Z,101603.41
2022-08-25T17:04:41.076Z,101599.66
2022-08-25T17:07:08.685Z,101606.50
2022-08-25T17:09:36.440Z,101607.00
2022-08-25T17:12:05.155Z,101604.78
2022-08-25T17:14:33.301Z,101606.00
2022-08-25T17:17:01.303Z,101613.09
2022-08-25T17:19:29.083Z,101614.47
2022-08-25T17:21:58.637Z,101612.78
2022-08-25T17:24:29.244Z,101609.91
2022-08-25T17:27:01.433Z,101608.50
2022-08-25T17:29:29.723Z,101607.34
2022-08-25T17:31:58.558Z,101604.28
2022-08-25T17:34:27.889Z,101604.91
2022-08-25T17:36:56.877Z,101603.22
2022-08-25T17:39:25.140Z,101615.91
2022-08-25T17:41:52.766Z,101622.81
2022-08-25T17:44:20.847Z,101615.34
2022-08-25T17:46:49.222Z,101621.75
2022-08-25T17:49:17.507Z,101622.09
2022-08-25T17:51:45.616Z,101608.22
2022-08-25T17:54:14.219Z,101610.22
2022-08-25T17:56:41.975Z,101611.91
2022-08-25T17:59:10.327Z,101616.16
2022-08-25T18:01:40.853Z,101612.28
2022-08-25T18:04:17.037Z,101616.66
2022-08-25T18:06:46.769Z,101621.03
2022-08-25T18:09:15.413Z,101618.00
2022-08-25T18:11:43.034Z,101621.34
2022-08-25T18:14:11.540Z,101624.38
2022-08-25T18:16:39.340Z,101623.00
2022-08-25T18:19:09.861Z,101622.47
2022-08-25T18:21:38.898Z,101620.91
2022-08-25T18:24:08.118Z,101624.63
2022-08-25T18:26:36.186Z,101624.78
2022-08-25T18:29:04.582Z,101624.97
2022-08-25T18:31:32.351Z,101623.59
2022-08-25T18:33:59.966Z,101622.16
2022-08-25T18:36:28.172Z,101620.31
2022-08-25T18:39:14.289Z,101626.59
2022-08-25T18:41:45.061Z,101636.50
2022-08-25T18:44:12.888Z,101628.53
2022-08-25T18:46:45.438Z,101629.09
2022-08-25T18:49:15.634Z,101635.00
2022-08-25T18:51:45.164Z,101626.41
2022-08-25T18:54:22.767Z,101634.41
2022-08-25T18:56:53.060Z,101622.47
2022-08-25T18:59:23.688Z,101629.72
2022-08-25T19:01:53.318Z,101629.81
2022-08-25T19:04:28.397Z,101628.06
2022-08-25T19:07:01.074Z,101629.84
2022-08-25T19:09:30.643Z,101619.84
2022-08-25T19:11:59.686Z,101630.28
2022-08-25T19:14:27.496Z,101632.31
2022-08-25T19:16:58.080Z,101639.53
2022-08-25T19:19:26.016Z,101633.59
2022-08-25T19:21:53.765Z,101634.59
2022-08-25T19:24:21.703Z,101641.69
2022-08-25T19:26:53.802Z,101646.44
2022-08-25T19:29:22.939Z,101639.47
2022-08-25T19:31:51.633Z,101639.78
2022-08-25T19:34:30.405Z,101637.72
2022-08-25T19:37:01.969Z,101638.19
2022-08-25T19:39:34.487Z,101646.59
2022-08-25T19:42:03.220Z,101646.06
2022-08-25T19:44:31.911Z,101653.78
2022-08-25T19:47:00.162Z,101656.78
2022-08-25T19:49:31.430Z,101656.19
2022-08-25T19:52:00.989Z,101653.13
2022-08-25T19:54:46.535Z,101650.75
2022-08-25T19:57:28.139Z,101663.00
2022-08-25T20:00:09.719Z,101658.34
2022-08-25T20:02:40.928Z,101660.91
2022-08-25T20:05:08.894Z,101668.69
2022-08-25T20:07:36.547Z,101659.03
2022-08-25T20:10:07.082Z,101664.44
2022-08-25T20:12:35.637Z,101665.16
2022-08-25T20:15:04.437Z,101669.69
2022-08-25T20:17:32.925Z,101664.91
2022-08-25T20:20:04.705Z,101660.97
2022-08-25T20:22:33.500Z,101657.97
2022-08-25T20:25:13.616Z,101662.22
2022-08-25T20:27:53.819Z,101657.09
2022-08-25T20:30:25.174Z,101660.97
2022-08-25T20:32:54.749Z,101661.97
2022-08-25T20:35:26.813Z,101661.25
2022-08-25T20:37:56.567Z,101667.78
2022-08-25T20:40:27.896Z,101666.53
2022-08-25T20:42:57.615Z,101674.56
2022-08-25T20:45:25.322Z,101669.22
2022-08-25T20:47:53.090Z,101682.28
2022-08-25T20:50:22.978Z,101683.28
2022-08-25T20:52:51.566Z,101679.03
2022-08-25T20:55:19.259Z,101682.03
2022-08-25T20:57:47.019Z,101692.28
2022-08-25T21:00:16.334Z,101688.00
2022-08-25T21:02:46.331Z,101689.78
2022-08-25T21:05:14.382Z,101701.13
2022-08-25T21:07:42.412Z,101694.72
2022-08-25T21:10:14.244Z,101704.09
2022-08-25T21:12:43.073Z,101702.69
2022-08-25T21:15:12.452Z,101698.88
2022-08-25T21:17:40.208Z,101705.66
2022-08-25T21:20:08.849Z,101700.81
2022-08-25T21:22:38.404Z,101698.97
2022-08-25T21:25:07.203Z,101704.66
2022-08-25T21:27:34.779Z,101705.38
2022-08-25T21:30:02.486Z,101703.06
2022-08-25T21:32:30.049Z,101687.59
2022-08-25T21:34:58.442Z,101690.56
2022-08-25T21:37:26.912Z,101686.91
2022-08-25T21:39:54.742Z,101694.91
2022-08-25T21:42:24.075Z,101695.31
2022-08-25T21:44:52.973Z,101691.78
2022-08-25T21:47:21.768Z,101694.47
2022-08-25T21:49:51.147Z,101697.88
2022-08-25T21:52:19.088Z,101691.50
2022-08-25T21:54:46.959Z,101696.47
2022-08-25T21:57:15.071Z,101694.72
2022-08-25T21:59:43.474Z,101695.75
2022-08-25T22:02:13.364Z,101690.81
2022-08-25T22:04:42.229Z,101693.75
2022-08-25T22:07:11.172Z,101697.03
2022-08-25T22:09:40.143Z,101707.81
2022-08-25T22:12:08.469Z,101694.19
2022-08-25T22:14:36.926Z,101695.56
2022-08-25T22:17:06.021Z,101683.69
2022-08-25T22:19:36.819Z,101693.50
2022-08-25T22:22:06.872Z,101691.66
2022-08-25T22:24:34.890Z,101695.47
2022-08-25T22:27:03.002Z,101692.03
2022-08-25T22:29:30.651Z,101689.91
2022-08-25T22:32:00.678Z,101690.06
2022-08-25T22:34:34.489Z,101687.09
2022-08-25T22:37:03.919Z,101689.63
2022-08-25T22:39:34.164Z,101687.78
2022-08-25T22:42:03.561Z,101694.06
2022-08-25T22:44:31.275Z,101686.66
2022-08-25T22:46:58.859Z,101693.75
2022-08-25T22:49:29.008Z,101692.03
2022-08-25T22:51:56.818Z,101696.59
2022-08-25T22:54:25.655Z,101695.59
2022-08-25T22:56:54.175Z,101692.06
2022-08-25T22:59:22.571Z,101689.84
2022-08-25T23:01:52.684Z,101685.56
2022-08-25T23:04:22.898Z,101683.72
2022-08-25T23:06:52.748Z,101675.81
2022-08-25T23:09:21.049Z,101675.81
2022-08-25T23:11:51.314Z,101667.56
2022-08-25T23:14:20.110Z,101677.34
2022-08-25T23:16:50.331Z,101670.13
2022-08-25T23:19:18.977Z,101677.91
2022-08-25T23:22:06.134Z,101672.53
2022-08-25T23:24:33.836Z,101666.97
2022-08-25T23:27:04.155Z,101668.81
2022-08-25T23:29:34.674Z,101675.34
2022-08-25T23:32:02.605Z,101671.81
2022-08-25T23:34:30.301Z,101672.66
2022-08-25T23:36:58.362Z,101673.66
2022-08-25T23:39:26.124Z,101677.19
2022-08-25T23:41:53.802Z,101671.81
2022-08-25T23:44:23.383Z,101667.44
2022-08-25T23:46:53.839Z,101668.41
2022-08-25T23:49:23.487Z,101667.56
2022-08-25T23:51:52.974Z,101666.72
2022-08-25T23:54:21.505Z,101666.72
2022-08-25T23:56:51.675Z,101657.91
2022-08-25T23:59:24.242Z,101658.91
